createdAt,value
2023-04-22T00:00:21.170Z,99294.00
2023-04-22T00:02:49.215Z,99297.00
2023-04-22T00:05:20.264Z,99289.00
2023-04-22T00:07:48.862Z,99277.00
2023-04-22T00:10:16.851Z,99286.00
2023-04-22T00:12:46.079Z,99285.00
2023-04-22T00:15:14.083Z,99289.00
2023-04-22T00:17:42.741Z,99282.00
2023-04-22T00:20:12.606Z,99277.00
2023-04-22T00:22:40.599Z,99276.00
2023-04-22T00:25:09.742Z,99274.00
2023-04-22T00:27:37.714Z,99272.00
2023-04-22T00:30:09.500Z,99263.00
2023-04-22T00:32:38.097Z,99251.00
2023-04-22T00:35:07.397Z,99268.00
2023-04-22T00:37:35.692Z,99261.00
2023-04-22T00:40:04.782Z,99262.00
2023-04-22T00:42:33.558Z,99260.00
2023-04-22T00:45:02.603Z,99264.00
2023-04-22T00:47:33.347Z,99256.00
2023-04-22T00:50:02.171Z,99261.00
2023-04-22T00:52:30.180Z,99260.00
2023-04-22T00:54:58.346Z,99256.00
2023-04-22T00:57:26.312Z,99246.00
2023-04-22T00:59:54.637Z,99256.00
2023-04-22T01:02:22.877Z,99254.00
2023-04-22T01:04:54.117Z,99240.00
2023-04-22T01:07:22.358Z,99243.00
2023-04-22T01:09:50.888Z,99245.00
2023-04-22T01:12:18.973Z,99247.00
2023-04-22T01:14:47.111Z,99245.00
2023-04-22T01:17:19.282Z,99253.00
2023-04-22T01:19:47.644Z,99239.00
2023-04-22T01:22:17.872Z,99254.00
2023-04-22T01:24:47.414Z,99236.00
2023-04-22T01:27:15.845Z,99252.00
2023-04-22T01:29:44.385Z,99249.00
2023-04-22T01:32:12.524Z,99245.00
2023-04-22T01:34:40.547Z,99251.00
2023-04-22T01:37:08.669Z,99247.00
2023-04-22T01:39:36.987Z,99245.00
2023-04-22T01:42:07.339Z,99241.00
2023-04-22T01:44:35.237Z,99238.00
2023-04-22T01:47:03.218Z,99231.00
2023-04-22T01:49:31.146Z,99237.00
2023-04-22T01:51:59.406Z,99233.00
2023-04-22T01:54:27.615Z,99227.00
2023-04-22T01:56:58.404Z,99229.00
2023-04-22T01:59:27.754Z,99231.00
2023-04-22T02:01:55.727Z,99231.00
2023-04-22T02:04:23.711Z,99234.00
2023-04-22T02:06:51.669Z,99228.00
2023-04-22T02:09:19.741Z,99229.00
2023-04-22T02:11:47.661Z,99226.00
2023-04-22T02:14:15.616Z,99229.00
2023-04-22T02:16:45.028Z,99225.00
2023-04-22T02:19:13.242Z,99214.00
2023-04-22T02:21:41.187Z,99222.00
2023-04-22T02:24:09.559Z,99212.00
2023-04-22T02:26:37.455Z,99221.00
2023-04-22T02:29:05.801Z,99222.00
2023-04-22T02:31:33.804Z,99213.00
2023-04-22T02:34:03.698Z,99214.00
2023-04-22T02:36:32.496Z,99214.00
2023-04-22T02:39:00.456Z,99215.00
2023-04-22T02:41:28.548Z,99218.00
2023-04-22T02:43:56.680Z,99204.00
2023-04-22T02:46:25.143Z,99209.00
2023-04-22T02:48:53.117Z,99202.00
2023-04-22T02:51:24.469Z,99203.00
2023-04-22T02:53:52.444Z,99202.00
2023-04-22T02:56:21.656Z,99194.00
2023-04-22T02:58:49.713Z,99205.00
2023-04-22T03:01:17.677Z,99198.00
2023-04-22T03:03:46.096Z,99196.00
2023-04-22T03:06:20.800Z,99207.00
2023-04-22T03:08:50.871Z,99212.00
2023-04-22T03:11:19.200Z,99197.00
2023-04-22T03:13:47.106Z,99205.00
2023-04-22T03:16:15.201Z,99202.00
2023-04-22T03:18:43.293Z,99193.00
2023-04-22T03:21:12.062Z,99200.00
2023-04-22T03:23:41.879Z,99198.00
2023-04-22T03:26:11.962Z,99202.00
2023-04-22T03:28:40.813Z,99198.00
2023-04-22T03:31:08.769Z,99194.00
2023-04-22T03:33:37.111Z,99194.00
2023-04-22T03:36:12.520Z,99186.00
2023-04-22T03:38:40.477Z,99185.00
2023-04-22T03:41:09.280Z,99181.00
2023-04-22T03:43:44.161Z,99188.00
2023-04-22T03:46:12.753Z,99186.00
2023-04-22T03:48:43.406Z,99188.00
2023-04-22T03:51:18.455Z,99185.00
2023-04-22T03:53:46.403Z,99179.00
2023-04-22T03:56:19.700Z,99180.00
2023-04-22T03:58:49.762Z,99182.00
2023-04-22T04:01:18.258Z,99188.00
2023-04-22T04:03:51.228Z,99187.00
2023-04-22T04:06:20.863Z,99180.00
2023-04-22T04:08:48.799Z,99162.00
2023-04-22T04:11:17.342Z,99174.00
2023-04-22T04:13:45.490Z,99172.00
2023-04-22T04:16:24.781Z,99181.00
2023-04-22T04:18:58.905Z,99183.00
2023-04-22T04:21:29.264Z,99184.00
2023-04-22T04:23:57.733Z,99170.00
2023-04-22T04:26:29.483Z,99182.00
2023-04-22T04:29:08.385Z,99184.00
2023-04-22T04:31:40.024Z,99187.00
2023-04-22T04:34:08.265Z,99186.00
2023-04-22T04:36:39.833Z,99195.00
2023-04-22T04:39:17.844Z,99204.00
2023-04-22T04:41:48.974Z,99204.00
2023-04-22T04:44:17.747Z,99201.00
2023-04-22T04:46:54.748Z,99192.00
2023-04-22T04:49:23.437Z,99200.00
2023-04-22T04:51:57.085Z,99215.00
2023-04-22T04:54:25.156Z,99213.00
2023-04-22T04:56:53.498Z,99200.00
2023-04-22T04:59:21.504Z,99202.00
2023-04-22T05:01:50.791Z,99207.00
2023-04-22T05:04:18.949Z,99200.00
2023-04-22T05:06:48.220Z,99200.00
2023-04-22T05:09:16.146Z,99211.00
2023-04-22T05:11:45.850Z,99216.00
2023-04-22T05:14:18.703Z,99212.00
2023-04-22T05:16:48.013Z,99218.00
2023-04-22T05:19:17.847Z,99212.00
2023-04-22T05:21:47.536Z,99212.00
2023-04-22T05:24:16.290Z,99206.00
2023-04-22T05:26:44.547Z,99215.00
2023-04-22T05:29:17.367Z,99211.00
2023-04-22T05:31:45.399Z,99212.00
2023-04-22T05:34:13.468Z,99232.00
2023-04-22T05:36:43.383Z,99225.00
2023-04-22T05:39:11.357Z,99228.00
2023-04-22T05:41:39.843Z,99223.00
2023-04-22T05:44:11.015Z,99231.00
2023-04-22T05:46:39.714Z,99229.00
2023-04-22T05:49:07.728Z,99228.00
2023-04-22T05:51:55.494Z,99228.00
2023-04-22T05:54:29.966Z,99233.00
2023-04-22T05:56:58.439Z,99229.00
2023-04-22T05:59:26.474Z,99226.00
2023-04-22T06:01:54.930Z,99222.00
2023-04-22T06:04:22.982Z,99222.00
2023-04-22T06:06:53.685Z,99211.00
2023-04-22T06:09:22.987Z,99212.00
2023-04-22T06:11:50.989Z,99211.00
2023-04-22T06:14:18.979Z,99205.00
2023-04-22T06:16:47.679Z,99210.00
2023-04-22T06:19:16.057Z,99219.00
2023-04-22T06:21:43.962Z,99215.00
2023-04-22T06:24:11.850Z,99210.00
2023-04-22T06:26:41.263Z,99219.00
2023-04-22T06:29:09.198Z,99225.00
2023-04-22T06:31:39.563Z,99229.00
2023-04-22T06:34:07.526Z,99231.00
2023-04-22T06:36:37.616Z,99227.00
2023-04-22T06:39:07.391Z,99226.00
2023-04-22T06:41:44.991Z,99224.00
2023-04-22T06:44:29.947Z,99228.00
2023-04-22T06:47:17.075Z,99221.00
2023-04-22T06:49:53.046Z,99216.00
2023-04-22T06:52:24.901Z,99222.00
2023-04-22T06:54:55.773Z,99230.00
2023-04-22T06:57:25.096Z,99224.00
2023-04-22T06:59:53.132Z,99219.00
2023-04-22T07:02:22.913Z,99218.00
2023-04-22T07:04:51.063Z,99210.00
2023-04-22T07:07:19.788Z,99209.00
2023-04-22T07:09:47.743Z,99215.00
2023-04-22T07:12:16.011Z,99217.00
2023-04-22T07:14:46.661Z,99222.00
2023-04-22T07:17:14.679Z,99207.00
2023-04-22T07:19:42.569Z,99207.00
2023-04-22T07:22:10.859Z,99205.00
2023-04-22T07:24:39.243Z,99203.00
2023-04-22T07:27:07.205Z,99195.00
2023-04-22T07:29:35.108Z,99201.00
2023-04-22T07:32:04.407Z,99196.00
2023-04-22T07:34:32.263Z,99195.00
2023-04-22T07:37:00.394Z,99190.00
2023-04-22T07:39:28.474Z,99182.00
2023-04-22T07:41:57.536Z,99192.00
2023-04-22T07:44:25.505Z,99190.00
2023-04-22T07:46:54.002Z,99184.00
2023-04-22T07:49:24.017Z,99190.00
2023-04-22T07:51:52.481Z,99186.00
2023-04-22T07:54:20.328Z,99184.00
2023-04-22T07:56:48.288Z,99187.00
2023-04-22T07:59:16.103Z,99182.00
2023-04-22T08:01:46.026Z,99187.00
2023-04-22T08:04:14.171Z,99172.00
2023-04-22T08:06:44.023Z,99178.00
2023-04-22T08:09:11.925Z,99176.00
2023-04-22T08:11:39.844Z,99179.00
2023-04-22T08:14:07.874Z,99175.00
2023-04-22T08:16:35.810Z,99172.00
2023-04-22T08:19:03.707Z,99169.00
2023-04-22T08:21:31.747Z,99179.00
2023-04-22T08:24:00.933Z,99166.00
2023-04-22T08:26:28.844Z,99169.00
2023-04-22T08:28:56.966Z,99166.00
2023-04-22T08:31:24.931Z,99166.00
2023-04-22T08:33:53.186Z,99162.00
2023-04-22T08:36:22.884Z,99167.00
2023-04-22T08:38:50.842Z,99163.00
2023-04-22T08:41:20.699Z,99164.00
2023-04-22T08:43:49.168Z,99158.00
2023-04-22T08:46:20.030Z,99160.00
2023-04-22T08:48:49.909Z,99165.00
2023-04-22T08:51:19.036Z,99166.00
2023-04-22T08:53:47.195Z,99161.00
2023-04-22T08:56:15.254Z,99161.00
2023-04-22T08:58:44.765Z,99153.00
2023-04-22T09:01:14.269Z,99158.00
2023-04-22T09:03:43.263Z,99153.00
2023-04-22T09:06:12.871Z,99154.00
2023-04-22T09:08:40.877Z,99154.00
2023-04-22T09:11:09.652Z,99143.00
2023-04-22T09:13:38.627Z,99144.00
2023-04-22T09:16:08.200Z,99150.00
2023-04-22T09:18:42.159Z,99145.00
2023-04-22T09:21:10.118Z,99139.00
2023-04-22T09:23:47.869Z,99137.00
2023-04-22T09:26:18.213Z,99145.00
2023-04-22T09:28:54.679Z,99140.00
2023-04-22T09:31:24.066Z,99146.00
2023-04-22T09:33:55.797Z,99124.00
2023-04-22T09:36:24.938Z,99130.00
2023-04-22T09:38:54.874Z,99134.00
2023-04-22T09:41:30.624Z,99128.00
2023-04-22T09:44:00.131Z,99130.00
2023-04-22T09:46:31.336Z,99125.00
2023-04-22T09:49:01.060Z,99131.00
2023-04-22T09:51:30.621Z,99119.00
2023-04-22T09:54:06.222Z,99130.00
2023-04-22T09:56:48.458Z,99129.00
2023-04-22T09:59:22.504Z,99128.00
2023-04-22T10:01:54.495Z,99131.00
2023-04-22T10:04:23.410Z,99126.00
2023-04-22T10:06:52.283Z,99125.00
2023-04-22T10:09:22.937Z,99121.00
2023-04-22T10:11:54.926Z,99113.00
2023-04-22T10:14:23.681Z,99107.00
2023-04-22T10:16:59.060Z,99121.00
2023-04-22T10:19:28.946Z,99124.00
2023-04-22T10:22:01.764Z,99117.00
2023-04-22T10:24:36.510Z,99115.00
2023-04-22T10:27:08.197Z,99117.00
2023-04-22T10:29:42.422Z,99115.00
2023-04-22T10:32:28.738Z,99111.00
2023-04-22T10:35:17.841Z,99114.00
2023-04-22T10:37:48.884Z,99114.00
2023-04-22T10:40:19.283Z,99098.00
2023-04-22T10:42:52.515Z,99104.00
2023-04-22T10:45:26.435Z,99101.00
2023-04-22T10:47:55.842Z,99099.00
2023-04-22T10:50:27.264Z,99101.00
2023-04-22T10:52:59.102Z,99098.00
2023-04-22T10:55:51.154Z,99101.00
2023-04-22T10:58:21.217Z,99099.00
2023-04-22T11:00:58.037Z,99101.00
2023-04-22T11:03:31.950Z,99101.00
2023-04-22T11:06:16.868Z,99093.00
2023-04-22T11:08:49.395Z,99091.00
2023-04-22T11:11:19.406Z,99094.00
2023-04-22T11:13:51.740Z,99086.00
2023-04-22T11:16:23.271Z,99086.00
2023-04-22T11:18:53.449Z,99090.00
2023-04-22T11:21:22.426Z,99076.00
2023-04-22T11:23:54.067Z,99080.00
2023-04-22T11:26:35.865Z,99080.00
2023-04-22T11:29:04.096Z,99090.00
2023-04-22T11:31:32.145Z,99088.00
2023-04-22T11:34:01.702Z,99088.00
2023-04-22T11:36:29.812Z,99071.00
2023-04-22T11:38:58.352Z,99074.00
2023-04-22T11:41:26.300Z,99082.00
2023-04-22T11:43:55.462Z,99065.00
2023-04-22T11:46:31.275Z,99050.00
2023-04-22T11:49:15.428Z,99071.00
2023-04-22T11:51:56.763Z,99060.00
2023-04-22T11:54:35.842Z,99061.00
2023-04-22T11:57:06.509Z,99067.00
2023-04-22T11:59:34.411Z,99067.00
2023-04-22T12:02:06.847Z,99068.00
2023-04-22T12:04:39.771Z,99059.00
2023-04-22T12:07:08.215Z,99060.00
2023-04-22T12:09:36.379Z,99054.00
2023-04-22T12:12:05.182Z,99064.00
2023-04-22T12:14:33.671Z,99066.00
2023-04-22T12:17:05.316Z,99051.00
2023-04-22T12:19:33.201Z,99052.00
2023-04-22T12:22:02.395Z,99061.00
2023-04-22T12:24:31.119Z,99050.00
2023-04-22T12:26:59.491Z,99060.00
2023-04-22T12:29:33.866Z,99051.00
2023-04-22T12:32:02.047Z,99048.00
2023-04-22T12:34:29.924Z,99035.00
2023-04-22T12:36:57.798Z,99047.00
2023-04-22T12:39:27.063Z,99039.00
2023-04-22T12:41:54.918Z,99040.00
2023-04-22T12:44:25.074Z,99040.00
2023-04-22T12:46:53.528Z,99042.00
2023-04-22T12:49:21.534Z,99036.00
2023-04-22T12:51:49.579Z,99036.00
2023-04-22T12:54:18.681Z,99032.00
2023-04-22T12:56:48.570Z,99031.00
2023-04-22T12:59:16.861Z,99029.00
2023-04-22T13:01:44.727Z,99044.00
2023-04-22T13:04:12.693Z,99031.00
2023-04-22T13:06:43.577Z,99040.00
2023-04-22T13:09:12.153Z,99028.00
2023-04-22T13:11:39.978Z,99030.00
2023-04-22T13:14:09.188Z,99017.00
2023-04-22T13:16:37.226Z,99027.00
2023-04-22T13:19:05.230Z,99017.00
2023-04-22T13:21:33.118Z,99015.00
2023-04-22T13:24:01.128Z,99003.00
2023-04-22T13:26:29.034Z,99002.00
2023-04-22T13:28:56.878Z,98997.00
2023-04-22T13:31:26.168Z,98989.00
2023-04-22T13:33:55.206Z,98997.00
2023-04-22T13:36:23.345Z,98994.00
2023-04-22T13:38:51.260Z,98997.00
2023-04-22T13:41:19.105Z,98990.00
2023-04-22T13:43:51.755Z,98987.00
2023-04-22T13:46:19.939Z,98990.00
2023-04-22T13:48:49.167Z,98983.00
2023-04-22T13:51:17.411Z,98977.00
2023-04-22T13:53:45.437Z,98975.00
2023-04-22T13:56:13.550Z,98970.00
2023-04-22T13:58:42.433Z,98953.00
2023-04-22T14:01:10.810Z,98961.00
2023-04-22T14:03:38.819Z,98949.00
2023-04-22T14:06:08.731Z,98954.00
2023-04-22T14:08:37.439Z,98953.00
2023-04-22T14:11:06.354Z,98945.00
2023-04-22T14:13:34.490Z,98946.00
2023-04-22T14:16:09.665Z,98940.00
2023-04-22T14:18:40.194Z,98938.00
2023-04-22T14:21:10.346Z,98942.00
2023-04-22T14:23:39.687Z,98926.00
2023-04-22T14:26:10.353Z,98915.00
2023-04-22T14:28:41.661Z,98919.00
2023-04-22T14:31:09.687Z,98915.00
2023-04-22T14:33:37.637Z,98917.00
2023-04-22T14:36:06.272Z,98916.00
2023-04-22T14:38:35.646Z,98918.00
2023-04-22T14:41:05.922Z,98914.00
2023-04-22T14:43:34.135Z,98919.00
2023-04-22T14:46:02.195Z,98905.00
2023-04-22T14:48:32.306Z,98909.00
2023-04-22T14:51:00.739Z,98902.00
2023-04-22T14:53:29.100Z,98914.00
2023-04-22T14:55:58.292Z,98903.00
2023-04-22T14:58:26.954Z,98899.00
2023-04-22T15:00:54.860Z,98902.00
2023-04-22T15:03:22.873Z,98900.00
2023-04-22T15:05:52.360Z,98896.00
2023-04-22T15:08:20.574Z,98887.00
2023-04-22T15:10:48.455Z,98881.00
2023-04-22T15:13:17.718Z,98878.00
2023-04-22T15:15:45.624Z,98887.00
2023-04-22T15:18:13.580Z,98888.00
2023-04-22T15:20:42.049Z,98885.00
2023-04-22T15:23:10.010Z,98873.00
2023-04-22T15:25:38.711Z,98878.00
2023-04-22T15:28:06.564Z,98873.00
2023-04-22T15:30:35.765Z,98874.00
2023-04-22T15:33:04.878Z,98870.00
2023-04-22T15:35:32.937Z,98869.00
2023-04-22T15:38:01.396Z,98865.00
2023-04-22T15:40:29.355Z,98861.00
2023-04-22T15:42:57.191Z,98871.00
2023-04-22T15:45:25.164Z,98864.00
2023-04-22T15:47:55.061Z,98860.00
2023-04-22T15:50:24.990Z,98860.00
2023-04-22T15:52:54.136Z,98851.00
2023-04-22T15:55:22.323Z,98859.00
2023-04-22T15:57:50.216Z,98851.00
2023-04-22T16:00:18.551Z,98844.00
2023-04-22T16:02:54.930Z,98847.00
2023-04-22T16:05:25.386Z,98843.00
2023-04-22T16:07:54.237Z,98845.00
2023-04-22T16:10:22.825Z,98846.00
2023-04-22T16:12:50.831Z,98845.00
2023-04-22T16:15:18.994Z,98843.00
2023-04-22T16:17:46.985Z,98846.00
2023-04-22T16:20:14.915Z,98840.00
2023-04-22T16:22:44.128Z,98841.00
2023-04-22T16:25:12.241Z,98844.00
2023-04-22T16:27:40.118Z,98841.00
2023-04-22T16:30:09.593Z,98846.00
2023-04-22T16:32:37.694Z,98837.00
2023-04-22T16:35:06.999Z,98839.00
2023-04-22T16:37:35.174Z,98837.00
2023-04-22T16:40:05.894Z,98842.00
2023-04-22T16:42:34.001Z,98840.00
2023-04-22T16:45:01.882Z,98843.00
2023-04-22T16:47:29.971Z,98836.00
2023-04-22T16:49:57.799Z,98829.00
2023-04-22T16:52:25.752Z,98836.00
2023-04-22T16:54:53.693Z,98832.00
2023-04-22T16:57:22.926Z,98822.00
2023-04-22T16:59:50.815Z,98826.00
2023-04-22T17:02:18.799Z,98828.00
2023-04-22T17:04:46.695Z,98829.00
2023-04-22T17:07:14.577Z,98826.00
2023-04-22T17:09:42.710Z,98825.00
2023-04-22T17:12:10.915Z,98812.00
2023-04-22T17:14:40.233Z,98819.00
2023-04-22T17:17:08.102Z,98817.00
2023-04-22T17:19:36.333Z,98822.00
2023-04-22T17:22:04.276Z,98816.00
2023-04-22T17:24:32.258Z,98818.00
2023-04-22T17:27:00.141Z,98821.00
2023-04-22T17:29:28.287Z,98817.00
2023-04-22T17:31:57.572Z,98823.00
2023-04-22T17:34:25.516Z,98821.00
2023-04-22T17:36:53.502Z,98818.00
2023-04-22T17:39:21.371Z,98818.00
2023-04-22T17:41:49.227Z,98823.00
2023-04-22T17:44:17.154Z,98825.00
2023-04-22T17:46:45.102Z,98832.00
2023-04-22T17:49:14.272Z,98825.00
2023-04-22T17:51:42.252Z,98823.00
2023-04-22T17:54:10.216Z,98828.00
2023-04-22T17:56:38.160Z,98822.00
2023-04-22T17:59:06.047Z,98826.00
2023-04-22T18:01:33.958Z,98829.00
2023-04-22T18:04:02.226Z,98824.00
2023-04-22T18:06:32.359Z,98828.00
2023-04-22T18:09:00.285Z,98826.00
2023-04-22T18:11:28.818Z,98834.00
2023-04-22T18:13:56.822Z,98836.00
2023-04-22T18:16:24.853Z,98834.00
2023-04-22T18:18:52.780Z,98835.00
2023-04-22T18:21:20.734Z,98840.00
2023-04-22T18:23:50.971Z,98838.00
2023-04-22T18:26:18.901Z,98846.00
2023-04-22T18:28:47.030Z,98842.00
2023-04-22T18:31:14.982Z,98843.00
2023-04-22T18:33:43.031Z,98847.00
2023-04-22T18:36:11.198Z,98848.00
2023-04-22T18:38:40.307Z,98843.00
2023-04-22T18:41:11.032Z,98844.00
2023-04-22T18:43:39.400Z,98838.00
2023-04-22T18:46:08.091Z,98843.00
2023-04-22T18:48:37.023Z,98843.00
2023-04-22T18:51:05.282Z,98840.00
2023-04-22T18:53:34.172Z,98841.00
2023-04-22T18:56:02.331Z,98849.00
2023-04-22T18:58:31.591Z,98840.00
2023-04-22T19:00:59.640Z,98841.00
2023-04-22T19:03:27.809Z,98849.00
2023-04-22T19:05:56.235Z,98843.00
2023-04-22T19:08:24.241Z,98850.00
2023-04-22T19:10:52.199Z,98853.00
2023-04-22T19:13:29.084Z,98864.00
2023-04-22T19:15:59.921Z,98860.00
2023-04-22T19:18:28.009Z,98851.00
2023-04-22T19:20:56.013Z,98848.00
2023-04-22T19:23:24.122Z,98850.00
2023-04-22T19:25:53.086Z,98843.00
2023-04-22T19:28:20.998Z,98851.00
2023-04-22T19:30:49.004Z,98845.00
2023-04-22T19:33:18.570Z,98836.00
2023-04-22T19:35:46.819Z,98837.00
2023-04-22T19:38:18.859Z,98838.00
2023-04-22T19:40:47.365Z,98834.00
2023-04-22T19:43:17.097Z,98832.00
2023-04-22T19:45:45.383Z,98839.00
2023-04-22T19:48:14.404Z,98828.00
2023-04-22T19:50:44.936Z,98830.00
2023-04-22T19:53:14.331Z,98826.00
2023-04-22T19:55:44.866Z,98832.00
2023-04-22T19:58:13.272Z,98818.00
2023-04-22T20:00:42.647Z,98826.00
2023-04-22T20:03:13.120Z,98825.00
2023-04-22T20:05:44.702Z,98821.00
2023-04-22T20:08:15.573Z,98828.00
2023-04-22T20:10:46.016Z,98826.00
2023-04-22T20:13:14.483Z,98810.00
2023-04-22T20:15:42.866Z,98819.00
2023-04-22T20:18:11.915Z,98803.00
2023-04-22T20:20:44.844Z,98810.00
2023-04-22T20:23:15.381Z,98799.00
2023-04-22T20:25:45.585Z,98814.00
2023-04-22T20:28:14.214Z,98809.00
2023-04-22T20:30:42.766Z,98813.00
2023-04-22T20:33:15.754Z,98813.00
2023-04-22T20:35:47.920Z,98810.00
2023-04-22T20:38:19.362Z,98810.00
2023-04-22T20:40:48.674Z,98804.00
2023-04-22T20:43:16.627Z,98803.00
2023-04-22T20:45:44.596Z,98801.00
2023-04-22T20:48:12.664Z,98794.00
2023-04-22T20:50:40.612Z,98794.00
2023-04-22T20:53:09.862Z,98786.00
2023-04-22T20:55:37.794Z,98791.00
2023-04-22T20:58:05.819Z,98792.00
2023-04-22T21:00:34.143Z,98776.00
2023-04-22T21:03:04.241Z,98786.00
2023-04-22T21:05:40.703Z,98783.00
2023-04-22T21:08:24.187Z,98791.00
2023-04-22T21:10:55.409Z,98781.00
2023-04-22T21:13:24.476Z,98779.00
2023-04-22T21:15:59.627Z,98770.00
2023-04-22T21:18:29.867Z,98778.00
2023-04-22T21:20:59.776Z,98782.00
2023-04-22T21:23:29.718Z,98782.00
2023-04-22T21:26:01.068Z,98784.00
2023-04-22T21:28:30.622Z,98783.00
2023-04-22T21:30:59.303Z,98781.00
2023-04-22T21:33:27.307Z,98781.00
2023-04-22T21:35:55.377Z,98777.00
2023-04-22T21:38:23.357Z,98783.00
2023-04-22T21:40:52.564Z,98781.00
2023-04-22T21:43:20.533Z,98780.00
2023-04-22T21:45:48.389Z,98770.00
2023-04-22T21:48:16.343Z,98777.00
2023-04-22T21:50:44.229Z,98779.00
2023-04-22T21:53:12.509Z,98780.00
2023-04-22T21:55:40.894Z,98781.00
2023-04-22T21:58:10.102Z,98779.00
2023-04-22T22:00:38.630Z,98784.00
2023-04-22T22:03:06.898Z,98777.00
2023-04-22T22:05:34.911Z,98779.00
2023-04-22T22:08:03.031Z,98775.00
2023-04-22T22:10:31.348Z,98782.00
2023-04-22T22:12:59.194Z,98778.00
2023-04-22T22:15:28.391Z,98776.00
2023-04-22T22:17:56.283Z,98778.00
2023-04-22T22:20:24.201Z,98784.00
2023-04-22T22:22:52.009Z,98776.00
2023-04-22T22:25:19.873Z,98777.00
2023-04-22T22:27:49.078Z,98776.00
2023-04-22T22:30:18.197Z,98779.00
2023-04-22T22:32:47.779Z,98782.00
2023-04-22T22:35:16.273Z,98784.00
2023-04-22T22:37:44.581Z,98787.00
2023-04-22T22:40:13.816Z,98784.00
2023-04-22T22:42:41.670Z,98786.00
2023-04-22T22:45:11.462Z,98787.00
2023-04-22T22:47:39.475Z,98783.00
2023-04-22T22:50:10.799Z,98778.00
2023-04-22T22:52:38.945Z,98796.00
2023-04-22T22:55:08.049Z,98787.00
2023-04-22T22:57:35.926Z,98784.00
2023-04-22T23:00:05.232Z,98783.00
2023-04-22T23:02:33.328Z,98781.00
2023-04-22T23:05:01.900Z,98783.00
2023-04-22T23:07:31.147Z,98798.00
2023-04-22T23:09:59.067Z,98788.00
2023-04-22T23:12:26.959Z,98792.00
2023-04-22T23:14:54.894Z,98778.00
2023-04-22T23:17:22.936Z,98786.00
2023-04-22T23:19:53.047Z,98781.00
2023-04-22T23:22:21.749Z,98774.00
2023-04-22T23:24:51.904Z,98781.00
2023-04-22T23:27:20.862Z,98779.00
2023-04-22T23:29:49.478Z,98773.00
2023-04-22T23:32:20.864Z,98773.00
2023-04-22T23:34:51.971Z,98771.00
2023-04-22T23:37:21.277Z,98774.00
2023-04-22T23:39:50.550Z,98762.00
2023-04-22T23:42:18.518Z,98780.00
2023-04-22T23:44:46.526Z,98773.00
2023-04-22T23:47:14.763Z,98760.00
2023-04-22T23:49:42.694Z,98775.00
2023-04-22T23:52:11.012Z,98777.00
2023-04-22T23:54:39.908Z,98764.00
2023-04-22T23:57:10.312Z,98763.00
2023-04-22T23:59:38.964Z,98761.00
